Time;durP1;ratioP1;P1;durP2;ratioP2;P2;SDS_P1;SDS_P2;PMS_P1;PMS_P2;Temp;Humidity;BMP_temperature;BMP_pressure;BME280_temperature;BME280_humidity;BME280_pressure;Samples;Min_cycle;Max_cycle;Signal;HPM_P1;HPM_P2
2023/11/11 00:01:37;;;;;;;3.97;0.80;;;;;;;7.09;100.00;96508.31;5118955;28;20255;-79
2023/11/11 00:04:04;;;;;;;1.70;0.80;;;;;;;7.03;100.00;96509.63;5118860;28;20204;-79
2023/11/11 00:06:30;;;;;;;0.63;0.60;;;;;;;7.01;100.00;96501.06;5119026;28;20278;-79
2023/11/11 00:08:58;;;;;;;1.80;0.60;;;;;;;6.96;100.00;96503.22;5119199;28;20263;-79
2023/11/11 00:11:25;;;;;;;0.70;0.70;;;;;;;6.98;100.00;96501.31;5118700;28;20237;-79
2023/11/11 00:13:51;;;;;;;1.00;0.70;;;;;;;6.93;100.00;96498.22;5118317;28;20189;-79
2023/11/11 00:16:18;;;;;;;1.23;0.60;;;;;;;6.94;100.00;96502.53;5117664;28;20197;-79
2023/11/11 00:18:45;;;;;;;0.60;0.57;;;;;;;6.98;100.00;96503.94;5118801;28;20190;-79
2023/11/11 00:21:12;;;;;;;1.63;0.70;;;;;;;6.90;100.00;96503.72;5118573;28;20270;-79
2023/11/11 00:23:38;;;;;;;0.50;0.50;;;;;;;6.94;100.00;96502.53;5118453;28;20214;-79
2023/11/11 00:26:06;;;;;;;1.43;0.60;;;;;;;7.01;100.00;96500.25;5118451;28;20226;-79
2023/11/11 00:28:33;;;;;;;0.90;0.50;;;;;;;7.01;100.00;96495.81;5118643;28;20227;-79
2023/11/11 00:30:59;;;;;;;0.60;0.60;;;;;;;7.01;100.00;96510.75;5118115;28;20249;-79
2023/11/11 00:33:26;;;;;;;0.73;0.60;;;;;;;6.98;100.00;96498.69;5117968;28;20191;-79
2023/11/11 00:35:53;;;;;;;1.37;0.77;;;;;;;6.96;100.00;96508.47;5103150;28;20570;-79
2023/11/11 00:38:19;;;;;;;1.07;0.50;;;;;;;6.99;100.00;96516.13;5094581;28;20213;-79
2023/11/11 00:40:46;;;;;;;1.00;0.50;;;;;;;6.99;100.00;96508.25;5094531;28;20733;-79
2023/11/11 00:43:14;;;;;;;0.93;0.70;;;;;;;7.05;100.00;96513.00;5109547;28;20224;-79
2023/11/11 00:45:40;;;;;;;0.80;0.70;;;;;;;7.06;100.00;96509.41;5115697;28;20224;-79
2023/11/11 00:48:07;;;;;;;1.00;0.60;;;;;;;7.14;100.00;96509.59;5115876;28;20194;-79
2023/11/11 00:50:34;;;;;;;1.33;0.63;;;;;;;7.12;100.00;96526.44;5117824;28;20191;-79
2023/11/11 00:53:01;;;;;;;2.00;0.73;;;;;;;7.16;100.00;96525.25;5117663;28;20215;-79
2023/11/11 00:55:27;;;;;;;0.60;0.60;;;;;;;7.19;100.00;96525.84;5117968;28;20221;-79
2023/11/11 00:57:54;;;;;;;0.50;0.50;;;;;;;7.11;100.00;96522.16;5117889;28;20211;-79
2023/11/11 01:00:21;;;;;;;1.00;0.70;;;;;;;7.12;100.00;96519.41;5117908;28;20207;-79
2023/11/11 01:02:49;;;;;;;0.70;0.60;;;;;;;7.12;100.00;96535.19;5117877;28;20217;-79
2023/11/11 01:05:16;;;;;;;0.57;0.57;;;;;;;7.08;100.00;96540.81;5117671;28;20299;-79
2023/11/11 01:07:42;;;;;;;2.70;0.70;;;;;;;7.05;100.00;96539.25;5099823;28;20308;-79
2023/11/11 01:10:09;;;;;;;1.10;0.63;;;;;;;6.99;100.00;96538.91;5110499;28;20550;-79
2023/11/11 01:12:36;;;;;;;0.50;0.50;;;;;;;6.99;100.00;96547.63;5116742;28;20209;-79
2023/11/11 01:15:05;;;;;;;0.73;0.60;;;;;;;6.99;100.00;96538.91;5117754;28;20222;-79
2023/11/11 01:17:32;;;;;;;0.97;0.60;;;;;;;7.01;100.00;96548.34;5117646;28;20194;-79
2023/11/11 01:19:59;;;;;;;0.47;0.47;;;;;;;7.17;100.00;96540.91;5117761;28;20216;-79
2023/11/11 01:22:28;;;;;;;0.53;0.50;;;;;;;7.14;100.00;96549.00;5117475;28;20206;-79
2023/11/11 01:24:54;;;;;;;1.10;0.50;;;;;;;7.20;100.00;96543.25;5117497;28;20221;-79
2023/11/11 01:27:21;;;;;;;2.13;0.50;;;;;;;7.29;100.00;96542.53;5117451;28;20243;-79
2023/11/11 01:29:48;;;;;;;0.70;0.50;;;;;;;7.34;100.00;96548.25;5117585;28;20225;-79
2023/11/11 01:32:14;;;;;;;0.77;0.50;;;;;;;7.37;100.00;96545.38;5117320;28;20268;-79
2023/11/11 01:34:42;;;;;;;0.40;0.40;;;;;;;7.47;100.00;96554.19;5117363;28;20232;-79
2023/11/11 01:37:09;;;;;;;1.57;0.50;;;;;;;7.47;100.00;96548.94;5105200;28;20206;-79
2023/11/11 01:39:36;;;;;;;0.40;0.40;;;;;;;7.45;100.00;96548.19;5094540;28;20208;-79
2023/11/11 01:42:05;;;;;;;0.60;0.40;;;;;;;7.51;100.00;96540.66;5093072;28;20637;-79
2023/11/11 01:44:31;;;;;;;0.40;0.40;;;;;;;7.56;100.00;96537.63;5092418;28;20629;-79
2023/11/11 01:46:58;;;;;;;0.40;0.40;;;;;;;7.61;100.00;96527.59;5092527;28;20224;-79
2023/11/11 01:49:25;;;;;;;0.30;0.30;;;;;;;7.59;100.00;96529.53;5092381;28;20358;-79
2023/11/11 01:51:53;;;;;;;3.50;0.50;;;;;;;7.55;100.00;96534.19;5091567;28;20684;-80
2023/11/11 01:54:21;;;;;;;0.30;0.30;;;;;;;7.55;100.00;96533.34;5091552;28;20685;-80
2023/11/11 01:56:47;;;;;;;0.87;0.50;;;;;;;7.58;100.00;96543.59;5092062;28;20215;-79
2023/11/11 01:59:14;;;;;;;0.53;0.53;;;;;;;7.58;100.00;96544.44;5091739;28;20222;-79
2023/11/11 02:01:41;;;;;;;0.40;0.40;;;;;;;7.59;100.00;96556.63;5091906;28;20236;-79
2023/11/11 02:04:08;;;;;;;0.40;0.40;;;;;;;7.62;100.00;96545.03;5091702;28;20207;-79
2023/11/11 02:06:34;;;;;;;1.40;0.47;;;;;;;7.63;100.00;96546.69;5091687;28;20237;-79
2023/11/11 02:09:03;;;;;;;0.87;0.40;;;;;;;7.64;100.00;96558.88;5091707;28;20706;-79
2023/11/11 02:11:31;;;;;;;0.30;0.30;;;;;;;7.61;100.00;96574.91;5091689;28;20234;-79
2023/11/11 02:13:58;;;;;;;0.40;0.40;;;;;;;7.57;100.00;96552.44;5091468;28;20204;-79
2023/11/11 02:16:26;;;;;;;0.93;0.30;;;;;;;7.52;100.00;96567.75;5091567;28;20295;-79
2023/11/11 02:18:52;;;;;;;0.63;0.47;;;;;;;7.51;100.00;96568.72;5091718;28;20211;-79
2023/11/11 02:21:19;;;;;;;0.50;0.40;;;;;;;7.46;100.00;96577.00;5091532;28;20231;-79
2023/11/11 02:23:48;;;;;;;0.30;0.30;;;;;;;7.45;100.00;96579.72;5091648;28;20234;-79
2023/11/11 02:26:15;;;;;;;0.40;0.30;;;;;;;7.41;100.00;96588.84;5091723;28;20233;-79
2023/11/11 02:28:41;;;;;;;0.53;0.30;;;;;;;7.39;100.00;96596.84;5091497;28;20706;-79
2023/11/11 02:31:09;;;;;;;0.40;0.40;;;;;;;7.41;100.00;96615.13;5091359;28;20240;-79
2023/11/11 02:33:36;;;;;;;0.50;0.50;;;;;;;7.38;100.00;96616.22;5091600;28;20210;-80
2023/11/11 02:36:06;;;;;;;0.30;0.30;;;;;;;7.30;100.00;96623.03;5091610;28;20647;-79
2023/11/11 02:38:32;;;;;;;0.87;0.40;;;;;;;7.16;100.00;96625.94;5091548;28;20208;-79
2023/11/11 02:41:00;;;;;;;0.40;0.40;;;;;;;7.04;100.00;96629.53;5091202;28;20248;-79
2023/11/11 02:43:27;;;;;;;0.30;0.30;;;;;;;7.02;100.00;96636.66;5091127;28;20210;-79
2023/11/11 02:45:53;;;;;;;0.20;0.20;;;;;;;6.92;100.00;96654.13;5091173;28;20321;-79
2023/11/11 02:48:20;;;;;;;0.40;0.30;;;;;;;6.85;100.00;96647.66;5091112;28;20226;-79
2023/11/11 02:50:46;;;;;;;0.50;0.40;;;;;;;6.73;100.00;96666.97;5091486;28;20214;-79
2023/11/11 02:53:13;;;;;;;0.40;0.40;;;;;;;6.61;100.00;96667.97;5091083;28;20216;-79
2023/11/11 02:55:39;;;;;;;0.50;0.50;;;;;;;6.46;100.00;96671.72;5094230;28;20229;-79
2023/11/11 02:58:06;;;;;;;0.47;0.47;;;;;;;6.35;100.00;96669.06;5095633;28;20699;-79
2023/11/11 03:00:33;;;;;;;0.67;0.50;;;;;;;6.30;100.00;96673.81;5095405;28;20217;-79
2023/11/11 03:03:00;;;;;;;1.20;0.40;;;;;;;6.30;100.00;96667.75;5094888;28;20214;-79
2023/11/11 03:05:26;;;;;;;0.70;0.50;;;;;;;6.26;100.00;96664.53;5095435;28;20587;-79
2023/11/11 03:07:53;;;;;;;0.80;0.60;;;;;;;6.22;100.00;96675.38;5094797;28;20227;-79
2023/11/11 03:10:19;;;;;;;1.33;0.60;;;;;;;6.20;100.00;96685.97;5095063;28;20225;-79
2023/11/11 03:12:47;;;;;;;0.43;0.43;;;;;;;6.18;100.00;96682.63;5094638;28;20320;-79
2023/11/11 03:15:15;;;;;;;1.27;0.70;;;;;;;6.21;100.00;96697.28;5094793;28;20213;-79
2023/11/11 03:17:44;;;;;;;1.57;0.80;;;;;;;6.27;100.00;96708.19;5094771;28;20640;-79
2023/11/11 03:20:11;;;;;;;0.70;0.70;;;;;;;6.35;100.00;96699.75;5094927;28;20271;-79
2023/11/11 03:22:38;;;;;;;0.90;0.70;;;;;;;6.37;100.00;96688.19;5094729;28;20409;-79
2023/11/11 03:25:05;;;;;;;0.87;0.80;;;;;;;6.39;100.00;96691.50;5094554;28;20212;-79
2023/11/11 03:27:32;;;;;;;2.17;1.20;;;;;;;6.43;100.00;96695.59;5094552;28;20231;-79
2023/11/11 03:29:59;;;;;;;1.30;0.90;;;;;;;6.43;100.00;96692.97;5094571;28;20207;-79
2023/11/11 03:32:27;;;;;;;0.90;0.90;;;;;;;6.43;100.00;96708.72;5094437;28;20351;-79
2023/11/11 03:34:53;;;;;;;0.90;0.90;;;;;;;6.45;100.00;96706.81;5094168;28;20229;-79
2023/11/11 03:37:19;;;;;;;1.00;0.90;;;;;;;6.45;100.00;96696.31;5094559;28;20203;-79
2023/11/11 03:39:46;;;;;;;1.13;0.90;;;;;;;6.46;100.00;96731.22;5094120;28;20213;-79
2023/11/11 03:42:13;;;;;;;1.20;1.00;;;;;;;6.48;100.00;96726.72;5094435;28;20239;-79
2023/11/11 03:44:40;;;;;;;0.80;0.80;;;;;;;6.51;100.00;96719.47;5094411;28;20227;-79
2023/11/11 03:47:07;;;;;;;1.80;0.80;;;;;;;6.53;100.00;96735.91;5094178;28;20231;-79
2023/11/11 03:49:35;;;;;;;1.20;1.10;;;;;;;6.49;100.00;96726.63;5094356;28;20214;-79
2023/11/11 03:52:01;;;;;;;1.47;1.20;;;;;;;6.53;100.00;96730.66;5093804;28;20231;-79
2023/11/11 03:54:28;;;;;;;1.10;1.00;;;;;;;6.59;100.00;96753.00;5093721;28;20693;-79
2023/11/11 03:56:55;;;;;;;1.33;1.20;;;;;;;6.58;100.00;96752.16;5094259;28;20213;-79
2023/11/11 03:59:21;;;;;;;0.97;0.87;;;;;;;6.59;100.00;96759.06;5094131;28;20207;-79
2023/11/11 04:01:49;;;;;;;1.67;1.00;;;;;;;6.59;100.00;96756.44;5093966;28;20231;-79
2023/11/11 04:04:15;;;;;;;2.00;0.93;;;;;;;6.57;100.00;96773.25;5094037;28;20207;-79
2023/11/11 04:06:43;;;;;;;1.10;0.97;;;;;;;6.57;100.00;96774.13;5093165;28;20230;-79
2023/11/11 04:09:10;;;;;;;1.20;1.10;;;;;;;6.54;100.00;96779.56;5094124;28;20620;-79
2023/11/11 04:11:39;;;;;;;1.10;1.00;;;;;;;6.51;100.00;96779.81;5093715;28;20603;-79
2023/11/11 04:14:06;;;;;;;1.30;0.97;;;;;;;6.49;100.00;96784.34;5093622;28;20297;-79
2023/11/11 04:16:32;;;;;;;1.30;1.20;;;;;;;6.51;100.00;96795.56;5094234;28;20253;-79
2023/11/11 04:18:59;;;;;;;1.70;1.00;;;;;;;6.50;100.00;96793.91;5093823;28;20207;-79
2023/11/11 04:21:26;;;;;;;1.43;1.33;;;;;;;6.54;100.00;96802.38;5093215;28;20231;-79
2023/11/11 04:23:54;;;;;;;2.30;1.03;;;;;;;6.53;100.00;96812.03;5093132;28;20681;-79
2023/11/11 04:26:20;;;;;;;2.67;1.30;;;;;;;6.56;100.00;96817.06;5093558;28;20265;-79
2023/11/11 04:28:47;;;;;;;1.90;1.10;;;;;;;6.55;100.00;96832.91;5093650;28;20211;-79
2023/11/11 04:31:17;;;;;;;1.47;1.20;;;;;;;6.55;100.00;96831.16;5093280;28;20259;-79
2023/11/11 04:33:43;;;;;;;1.73;1.13;;;;;;;6.55;100.00;96833.78;5093025;28;20324;-79
2023/11/11 04:36:10;;;;;;;1.87;1.03;;;;;;;6.62;100.00;96844.63;5093250;28;20592;-79
2023/11/11 04:38:37;;;;;;;2.20;1.13;;;;;;;6.63;100.00;96841.91;5093328;28;20431;-79
2023/11/11 04:41:05;;;;;;;2.40;1.30;;;;;;;6.68;100.00;96859.94;5093407;28;20227;-79
2023/11/11 04:43:34;;;;;;;2.17;1.17;;;;;;;6.69;100.00;96877.34;5093081;28;20235;-79
2023/11/11 04:46:00;;;;;;;2.30;1.17;;;;;;;6.72;100.00;96877.97;5093821;28;20260;-79
2023/11/11 04:48:27;;;;;;;2.20;1.30;;;;;;;6.72;100.00;96875.34;5093238;28;20234;-80
2023/11/11 04:50:53;;;;;;;1.47;1.37;;;;;;;6.74;100.00;96885.75;5093821;28;20211;-78
2023/11/11 04:53:20;;;;;;;1.57;1.20;;;;;;;6.75;100.00;96893.50;5094053;28;20203;-78
2023/11/11 04:55:47;;;;;;;1.77;1.33;;;;;;;6.76;100.00;96910.06;5093804;28;20227;-78
2023/11/11 04:58:16;;;;;;;2.53;1.43;;;;;;;6.80;100.00;96907.13;5094196;28;20200;-79
2023/11/11 05:00:42;;;;;;;1.90;1.50;;;;;;;6.79;100.00;96915.94;5093836;28;20242;-80
2023/11/11 05:03:09;;;;;;;3.17;1.53;;;;;;;6.77;100.00;96923.09;5095459;28;20282;-80
2023/11/11 05:05:35;;;;;;;1.43;1.33;;;;;;;6.81;100.00;96935.06;5094741;28;20203;-77
2023/11/11 05:08:02;;;;;;;2.97;1.50;;;;;;;6.80;100.00;96938.66;5093311;28;20240;-78
2023/11/11 05:10:31;;;;;;;4.23;1.30;;;;;;;6.80;100.00;96953.56;5092614;28;20208;-78
2023/11/11 05:12:59;;;;;;;2.47;1.47;;;;;;;6.76;100.00;96952.94;5092041;28;20241;-78
2023/11/11 05:15:27;;;;;;;2.20;1.20;;;;;;;6.70;100.00;96963.88;5092266;28;20207;-78
2023/11/11 05:17:54;;;;;;;2.23;1.60;;;;;;;6.65;100.00;96960.75;5091693;28;20210;-78
2023/11/11 05:20:21;;;;;;;2.63;1.30;;;;;;;6.67;100.00;96958.88;5092258;28;20299;-78
2023/11/11 05:22:47;;;;;;;2.10;1.50;;;;;;;6.65;100.00;96958.13;5092159;28;20722;-77
2023/11/11 05:25:15;;;;;;;1.37;1.27;;;;;;;6.64;100.00;96961.69;5091971;28;20211;-78
2023/11/11 05:27:42;;;;;;;1.40;1.30;;;;;;;6.65;100.00;96965.19;5092403;28;20231;-80
2023/11/11 05:30:10;;;;;;;3.00;1.47;;;;;;;6.68;100.00;96965.78;5092423;28;20311;-78
2023/11/11 05:32:38;;;;;;;3.80;1.30;;;;;;;6.66;100.00;96970.28;5092134;28;20708;-78
2023/11/11 05:35:06;;;;;;;1.83;1.37;;;;;;;6.63;100.00;96975.78;5091950;28;20203;-78
2023/11/11 05:37:32;;;;;;;1.97;1.20;;;;;;;6.65;100.00;96979.13;5092383;28;20284;-78
2023/11/11 05:39:59;;;;;;;1.50;1.40;;;;;;;6.61;100.00;96980.31;5092627;28;20214;-78
2023/11/11 05:42:25;;;;;;;3.97;1.30;;;;;;;6.62;100.00;96987.22;5092522;28;20228;-78
2023/11/11 05:44:51;;;;;;;1.67;1.40;;;;;;;6.61;100.00;96980.31;5092085;28;20217;-78
2023/11/11 05:47:18;;;;;;;2.63;1.30;;;;;;;6.59;100.00;96984.00;5092285;28;20233;-78
2023/11/11 05:49:46;;;;;;;1.40;1.30;;;;;;;6.52;100.00;96987.97;5092200;28;20258;-78
2023/11/11 05:52:13;;;;;;;2.10;1.53;;;;;;;6.47;100.00;96992.75;5092121;28;20228;-78
2023/11/11 05:54:39;;;;;;;4.10;1.73;;;;;;;6.48;100.00;97003.09;5091930;28;20214;-79
2023/11/11 05:57:06;;;;;;;1.40;1.30;;;;;;;6.45;100.00;96998.09;5092084;28;20210;-78
2023/11/11 05:59:32;;;;;;;1.33;1.17;;;;;;;6.33;100.00;97001.56;5092045;28;20308;-78
2023/11/11 06:02:02;;;;;;;2.33;1.57;;;;;;;6.28;100.00;97011.53;5091818;28;20681;-78
2023/11/11 06:04:29;;;;;;;3.67;1.40;;;;;;;6.30;100.00;97009.66;5091879;28;20207;-79
2023/11/11 06:06:57;;;;;;;2.60;1.50;;;;;;;6.25;100.00;97014.41;5091710;28;20615;-78
2023/11/11 06:09:24;;;;;;;3.47;1.80;;;;;;;6.16;100.00;97017.66;5091845;28;20303;-78
2023/11/11 06:11:51;;;;;;;5.27;1.70;;;;;;;6.14;100.00;97024.78;5091762;28;20258;-78
2023/11/11 06:14:17;;;;;;;1.93;1.60;;;;;;;6.13;100.00;97027.50;5091882;28;20253;-78
2023/11/11 06:16:44;;;;;;;1.63;1.50;;;;;;;6.04;100.00;97036.03;5091631;28;20297;-78
2023/11/11 06:19:11;;;;;;;4.73;2.13;;;;;;;5.94;100.00;97037.59;5091669;28;20218;-80
2023/11/11 06:21:37;;;;;;;1.50;1.40;;;;;;;5.86;100.00;97043.34;5091729;28;20226;-80
2023/11/11 06:24:06;;;;;;;4.03;1.53;;;;;;;5.85;100.00;97046.91;5091484;28;20216;-78
2023/11/11 06:26:33;;;;;;;3.13;1.73;;;;;;;5.81;100.00;97052.47;5091324;28;20562;-78
2023/11/11 06:28:59;;;;;;;3.17;1.90;;;;;;;5.81;100.00;97058.53;5093573;28;20235;-78
2023/11/11 06:31:26;;;;;;;3.30;2.60;;;;;;;5.82;100.00;97068.13;5095504;28;20223;-78
2023/11/11 06:33:53;;;;;;;3.50;2.00;;;;;;;5.82;100.00;97078.59;5095994;28;20225;-78
2023/11/11 06:36:20;;;;;;;2.80;1.70;;;;;;;5.89;100.00;97072.00;5096137;28;20209;-78
2023/11/11 06:38:46;;;;;;;2.60;1.50;;;;;;;6.04;100.00;97075.38;5096313;28;20206;-78
2023/11/11 06:41:14;;;;;;;1.63;1.43;;;;;;;6.16;100.00;97093.72;5096348;28;20241;-78
2023/11/11 06:43:40;;;;;;;2.90;1.40;;;;;;;6.22;100.00;97093.31;5096004;28;20586;-78
2023/11/11 06:46:08;;;;;;;2.03;1.77;;;;;;;6.30;100.00;97098.84;5095588;28;20227;-78
2023/11/11 06:48:34;;;;;;;2.03;1.77;;;;;;;6.33;100.00;97105.69;5095487;28;20231;-78
2023/11/11 06:51:01;;;;;;;2.40;1.40;;;;;;;6.39;100.00;97105.25;5096368;28;20224;-78
2023/11/11 06:53:27;;;;;;;2.50;1.60;;;;;;;6.40;100.00;97113.03;5095722;28;20659;-79
2023/11/11 06:55:54;;;;;;;2.87;1.77;;;;;;;6.39;100.00;97116.59;5096435;28;20219;-79
2023/11/11 06:58:22;;;;;;;3.17;1.57;;;;;;;6.39;100.00;97121.00;5095947;28;20206;-79
2023/11/11 07:00:50;;;;;;;4.93;1.40;;;;;;;6.43;100.00;97118.09;5095752;28;20216;-78
2023/11/11 07:03:17;;;;;;;3.13;2.00;;;;;;;6.42;100.00;97116.38;5095088;28;20302;-78
2023/11/11 07:05:44;;;;;;;3.63;1.53;;;;;;;6.46;100.00;97117.84;5095036;28;20206;-78
2023/11/11 07:08:11;;;;;;;2.40;1.80;;;;;;;6.47;100.00;97130.03;5094382;28;20237;-78
2023/11/11 07:10:38;;;;;;;2.47;1.73;;;;;;;6.50;100.00;97145.59;5095370;28;20211;-77
2023/11/11 07:13:05;;;;;;;3.17;1.27;;;;;;;6.53;100.00;97134.84;5094756;28;20207;-77
2023/11/11 07:15:34;;;;;;;1.73;1.37;;;;;;;6.57;100.00;97136.34;5094953;28;20215;-77
2023/11/11 07:18:01;;;;;;;3.30;1.50;;;;;;;6.60;100.00;97151.84;5095667;28;20591;-78
2023/11/11 07:20:28;;;;;;;1.97;1.23;;;;;;;6.62;100.00;97144.75;5095243;28;20696;-78
2023/11/11 07:22:55;;;;;;;3.27;1.40;;;;;;;6.66;100.00;97156.69;5095970;28;20254;-77
2023/11/11 07:25:23;;;;;;;2.40;1.37;;;;;;;6.62;100.00;97157.88;5095429;28;20235;-80
2023/11/11 07:27:50;;;;;;;1.87;1.40;;;;;;;6.65;100.00;97148.94;5094717;28;20240;-79
2023/11/11 07:30:16;;;;;;;1.43;1.20;;;;;;;6.73;100.00;97157.13;5095343;28;20783;-78
2023/11/11 07:32:44;;;;;;;1.50;1.30;;;;;;;6.72;100.00;97161.53;5095382;28;20238;-79
2023/11/11 07:35:11;;;;;;;1.90;1.50;;;;;;;6.74;100.00;97167.53;5095037;28;20212;-77
2023/11/11 07:37:38;;;;;;;2.97;1.30;;;;;;;6.80;100.00;97166.25;5094564;28;20217;-77
2023/11/11 07:40:08;;;;;;;1.60;1.50;;;;;;;6.81;100.00;97168.78;5093894;28;20572;-79
2023/11/11 07:42:35;;;;;;;5.90;2.03;;;;;;;6.88;100.00;97171.78;5094671;28;20228;-77
2023/11/11 07:45:04;;;;;;;2.80;1.60;;;;;;;6.91;100.00;97182.94;5093988;28;20243;-77
2023/11/11 07:47:30;;;;;;;2.20;1.77;;;;;;;6.96;100.00;97180.00;5095356;28;20228;-78
2023/11/11 07:49:58;;;;;;;1.93;1.73;;;;;;;6.98;100.00;97184.22;5094580;28;20209;-77
2023/11/11 07:52:25;;;;;;;1.93;1.67;;;;;;;7.01;100.00;97183.97;5095313;28;20228;-78
2023/11/11 07:54:52;;;;;;;2.13;1.80;;;;;;;7.03;100.00;97189.94;5094647;28;20285;-77
2023/11/11 07:57:19;;;;;;;2.00;1.80;;;;;;;7.07;100.00;97194.06;5094824;28;20202;-77
2023/11/11 07:59:46;;;;;;;4.23;1.80;;;;;;;7.09;100.00;97192.16;5095750;28;20215;-79
2023/11/11 08:02:14;;;;;;;2.87;1.67;;;;;;;7.09;100.00;97197.41;5095701;28;20241;-78
2023/11/11 08:04:41;;;;;;;1.77;1.60;;;;;;;7.14;100.00;97205.00;5096183;28;20228;-79
2023/11/11 08:07:11;;;;;;;5.17;2.07;;;;;;;7.15;100.00;97207.47;5097620;28;20265;-78
2023/11/11 08:09:38;;;;;;;2.30;1.93;;;;;;;7.20;100.00;97209.81;5096826;28;20207;-79
2023/11/11 08:12:05;;;;;;;3.37;1.77;;;;;;;7.21;100.00;97209.69;5097760;28;20223;-78
2023/11/11 08:14:32;;;;;;;2.43;1.83;;;;;;;7.28;100.00;97213.59;5095439;28;20222;-78
2023/11/11 08:16:59;;;;;;;3.30;2.13;;;;;;;7.33;100.00;97214.94;5097410;28;20303;-78
2023/11/11 08:19:27;;;;;;;2.07;1.83;;;;;;;7.33;100.00;97219.34;5101317;28;20203;-79
2023/11/11 08:21:54;;;;;;;3.40;1.90;;;;;;;7.38;100.00;97216.41;5100993;28;20570;-79
2023/11/11 08:24:22;;;;;;;2.73;1.60;;;;;;;7.40;100.00;97207.44;5098814;28;20207;-78
2023/11/11 08:26:48;;;;;;;1.93;1.70;;;;;;;7.32;100.00;97212.41;5097190;28;20217;-78
2023/11/11 08:29:15;;;;;;;3.27;1.83;;;;;;;7.34;100.00;97216.59;5103235;28;20299;-79
2023/11/11 08:31:42;;;;;;;2.00;1.80;;;;;;;7.38;100.00;97219.03;5100370;28;20231;-78
2023/11/11 08:34:08;;;;;;;1.70;1.60;;;;;;;7.39;100.00;97211.00;5099122;28;20211;-79
2023/11/11 08:36:35;;;;;;;2.30;2.03;;;;;;;7.44;100.00;97229.94;5108258;28;20207;-78
2023/11/11 08:39:01;;;;;;;3.50;1.80;;;;;;;7.56;100.00;97229.06;5104121;28;20201;-80
2023/11/11 08:41:29;;;;;;;2.20;1.97;;;;;;;7.55;100.00;97235.28;5098639;28;20230;-80
2023/11/11 08:43:55;;;;;;;2.10;1.90;;;;;;;7.60;100.00;97235.78;5094719;28;20214;-80
2023/11/11 08:46:23;;;;;;;1.87;1.60;;;;;;;7.53;100.00;97234.56;5095808;28;20207;-81
2023/11/11 08:48:51;;;;;;;2.30;1.80;;;;;;;7.51;100.00;97239.91;5094623;28;20227;-80
2023/11/11 08:51:18;;;;;;;1.93;1.40;;;;;;;7.45;100.00;97242.97;5096087;28;20230;-79
2023/11/11 08:53:45;;;;;;;3.57;1.47;;;;;;;7.48;100.00;97250.63;5095958;28;20215;-78
2023/11/11 08:56:13;;;;;;;2.07;1.60;;;;;;;7.53;100.00;97252.97;5095658;28;20252;-78
2023/11/11 08:58:41;;;;;;;4.40;2.20;;;;;;;7.57;100.00;97254.41;5095939;28;20211;-79
2023/11/11 09:01:08;;;;;;;4.53;1.97;;;;;;;7.61;100.00;97253.25;5095212;28;20228;-79
2023/11/11 09:03:34;;;;;;;2.10;1.73;;;;;;;7.61;100.00;97258.50;5092960;28;20278;-79
2023/11/11 09:06:02;;;;;;;4.07;1.90;;;;;;;7.57;100.00;97241.25;5093119;28;20211;-79
2023/11/11 09:08:29;;;;;;;1.80;1.63;;;;;;;7.53;100.00;97251.16;5093082;28;20230;-80
2023/11/11 09:10:56;;;;;;;1.70;1.60;;;;;;;7.59;100.00;97244.63;5093200;28;20318;-79
2023/11/11 09:13:23;;;;;;;3.77;2.00;;;;;;;7.66;100.00;97253.75;5093260;28;20208;-79
2023/11/11 09:15:51;;;;;;;3.93;1.63;;;;;;;7.74;100.00;97267.19;5093226;28;20218;-79
2023/11/11 09:18:18;;;;;;;2.40;1.57;;;;;;;7.77;100.00;97259.09;5093147;28;20201;-79
2023/11/11 09:20:45;;;;;;;2.23;1.60;;;;;;;7.78;100.00;97261.59;5093342;28;20250;-80
2023/11/11 09:23:11;;;;;;;2.10;1.50;;;;;;;7.77;100.00;97256.47;5093067;28;20203;-80
2023/11/11 09:25:38;;;;;;;2.00;1.60;;;;;;;7.79;99.82;97267.72;5093023;28;20217;-78
2023/11/11 09:28:06;;;;;;;3.23;1.73;;;;;;;7.82;97.76;97262.22;5093522;28;20777;-83
2023/11/11 09:30:33;;;;;;;2.27;1.50;;;;;;;7.81;97.50;97260.53;5093509;28;20304;-81
2023/11/11 09:33:02;;;;;;;1.57;1.47;;;;;;;7.75;96.82;97264.47;5093307;28;20215;-83
2023/11/11 09:35:28;;;;;;;1.63;1.43;;;;;;;7.82;95.36;97262.22;5093963;28;20213;-81
2023/11/11 09:37:55;;;;;;;1.93;1.40;;;;;;;7.85;95.43;97272.53;5093157;28;20669;-79
2023/11/11 09:40:21;;;;;;;1.60;1.40;;;;;;;7.84;94.15;97270.84;5093691;28;20297;-76
2023/11/11 09:42:48;;;;;;;1.60;1.50;;;;;;;7.87;92.81;97274.09;5093021;28;20231;-77
2023/11/11 09:45:15;;;;;;;1.43;1.20;;;;;;;7.88;94.06;97283.66;5094016;28;20238;-76
2023/11/11 09:47:44;;;;;;;2.73;1.10;;;;;;;7.89;94.39;97284.53;5094660;28;20204;-78
2023/11/11 09:50:14;;;;;;;2.27;1.37;;;;;;;7.88;94.51;97281.03;5094880;28;20707;-77
2023/11/11 09:52:43;;;;;;;1.30;1.20;;;;;;;7.97;93.53;97283.00;5093512;28;20672;-77
2023/11/11 09:55:11;;;;;;;1.17;1.00;;;;;;;8.01;91.72;97273.94;5094740;28;20662;-78
2023/11/11 09:57:39;;;;;;;1.30;1.20;;;;;;;7.94;91.18;97283.22;5091273;28;20216;-78
2023/11/11 10:00:10;;;;;;;2.90;1.57;;;;;;;7.99;93.35;97298.66;5075975;28;20223;-78
2023/11/11 10:02:37;;;;;;;1.80;1.20;;;;;;;8.08;93.28;97284.88;5083700;28;20576;-81
2023/11/11 10:05:04;;;;;;;1.60;1.50;;;;;;;8.07;92.52;97284.03;5094393;28;20213;-83
2023/11/11 10:07:33;;;;;;;1.60;1.30;;;;;;;8.11;90.78;97280.22;5079902;28;20223;-78
2023/11/11 10:10:00;;;;;;;4.53;1.80;;;;;;;8.12;89.79;97270.50;5074043;28;20228;-78
2023/11/11 10:12:29;;;;;;;2.07;1.40;;;;;;;7.94;88.50;97261.31;5072852;28;20238;-78
2023/11/11 10:14:56;;;;;;;1.67;1.30;;;;;;;8.01;88.96;97267.81;5076189;28;20636;-81
2023/11/11 10:17:23;;;;;;;1.70;1.50;;;;;;;8.07;91.33;97283.16;5089136;28;20217;-79
2023/11/11 10:19:49;;;;;;;2.20;1.60;;;;;;;8.15;91.57;97286.09;5093092;28;20204;-81
2023/11/11 10:22:16;;;;;;;2.43;1.40;;;;;;;8.17;90.80;97281.56;5087746;28;20223;-78
2023/11/11 10:24:46;;;;;;;2.30;1.50;;;;;;;8.23;88.60;97275.88;5094330;28;20215;-79
2023/11/11 10:27:12;;;;;;;3.20;1.30;;;;;;;8.30;89.72;97283.22;5094264;28;20209;-79
2023/11/11 10:29:39;;;;;;;1.33;1.23;;;;;;;8.44;87.48;97267.22;5093888;28;20632;-79
2023/11/11 10:32:09;;;;;;;2.37;1.30;;;;;;;8.46;87.74;97253.97;5093595;28;20232;-79
2023/11/11 10:34:37;;;;;;;2.97;1.40;;;;;;;8.41;88.28;97253.47;5096394;28;20209;-80
2023/11/11 10:37:05;;;;;;;1.33;1.20;;;;;;;8.42;87.69;97247.22;5095324;28;20246;-80
2023/11/11 10:39:34;;;;;;;1.30;1.20;;;;;;;8.57;89.45;97262.72;5093205;28;20208;-83
2023/11/11 10:42:03;;;;;;;1.77;1.50;;;;;;;8.53;86.11;97255.19;5093510;28;20256;-83
2023/11/11 10:44:30;;;;;;;2.17;1.50;;;;;;;8.57;86.90;97248.75;5092549;28;20219;-83
2023/11/11 10:46:58;;;;;;;1.27;1.17;;;;;;;8.41;83.23;97232.41;5093048;28;20212;-79
2023/11/11 10:49:26;;;;;;;1.20;1.10;;;;;;;8.42;84.09;97234.06;5093029;28;20226;-81
2023/11/11 10:51:53;;;;;;;2.00;1.20;;;;;;;8.40;83.60;97238.63;5092231;28;20237;-82
2023/11/11 10:54:21;;;;;;;2.23;1.40;;;;;;;8.34;84.12;97245.16;5080238;28;20629;-82
2023/11/11 10:56:48;;;;;;;2.30;1.27;;;;;;;8.39;83.51;97239.56;5072967;28;20292;-79
2023/11/11 10:59:16;;;;;;;1.50;1.20;;;;;;;8.31;81.64;97237.50;5070485;28;20301;-76
2023/11/11 11:01:43;;;;;;;1.43;1.03;;;;;;;8.34;80.77;97234.63;5070717;28;20826;-77
2023/11/11 11:04:10;;;;;;;0.90;0.90;;;;;;;8.30;79.82;97229.72;5071721;28;20210;-80
2023/11/11 11:06:41;;;;;;;1.77;1.10;;;;;;;8.38;80.31;97251.06;5072097;28;20583;-80
2023/11/11 11:09:24;;;;;;;1.10;0.87;;;;;;;8.35;80.74;97240.75;5078990;28;20233;-79
2023/11/11 11:12:02;;;;;;;2.33;1.40;;;;;;;8.39;83.21;97255.38;5092663;28;20223;-79
2023/11/11 11:14:45;;;;;;;1.50;1.10;;;;;;;8.48;81.99;97252.03;5093637;28;20297;-80
2023/11/11 11:17:12;;;;;;;0.83;0.80;;;;;;;8.43;78.71;97230.47;5095424;28;20210;-80
2023/11/11 11:19:52;;;;;;;2.57;1.20;;;;;;;8.47;77.97;97224.03;5095148;28;20263;-80
2023/11/11 11:22:19;;;;;;;1.47;1.03;;;;;;;8.51;76.17;97222.88;5094742;28;20282;-80
2023/11/11 11:24:46;;;;;;;1.57;0.90;;;;;;;8.55;77.28;97226.91;5094804;28;20211;-80
2023/11/11 11:27:12;;;;;;;1.30;0.90;;;;;;;8.66;77.20;97229.59;5094772;28;20215;-80
2023/11/11 11:29:40;;;;;;;1.47;1.00;;;;;;;8.64;76.97;97232.34;5094502;28;20229;-80
2023/11/11 11:32:08;;;;;;;2.57;0.90;;;;;;;8.64;77.68;97228.88;5095154;28;20281;-80
2023/11/11 11:34:36;;;;;;;1.10;0.97;;;;;;;8.73;76.92;97225.53;5096630;28;20217;-79